Time;durP1;ratioP1;P1;durP2;ratioP2;P2;SDS_P1;SDS_P2;PMS_P1;PMS_P2;Temp;Humidity;BMP_temperature;BMP_pressure;BME280_temperature;BME280_humidity;BME280_pressure;Samples;Min_cycle;Max_cycle;Signal;HPM_P1;HPM_P2
2023/06/23 00:01:14;;;;;;;10.98;10.02;;;;;;;;;;5032753;28;20439;-80
2023/06/23 00:03:43;;;;;;;11.82;10.50;;;;;;;;;;5033676;28;20045;-80
2023/06/23 00:06:09;;;;;;;12.10;10.88;;;;;;;;;;5017127;28;20045;-79
2023/06/23 00:08:35;;;;;;;11.18;10.02;;;;;;;;;;5032544;28;20047;-79
2023/06/23 00:11:02;;;;;;;13.23;11.52;;;;;;;;;;5032451;28;20140;-80
2023/06/23 00:13:28;;;;;;;11.90;10.65;;;;;;;;;;5032751;28;20080;-81
2023/06/23 00:15:54;;;;;;;11.02;10.02;;;;;;;;;;5032715;28;20037;-81
2023/06/23 00:18:23;;;;;;;12.85;11.65;;;;;;;;;;5032966;28;20051;-81
2023/06/23 00:20:49;;;;;;;10.75;9.82;;;;;;;;;;5033298;28;20041;-80
2023/06/23 00:23:16;;;;;;;13.15;11.63;;;;;;;;;;5033554;28;20057;-80
2023/06/23 00:25:42;;;;;;;13.68;11.40;;;;;;;;;;5036240;28;20060;-80
2023/06/23 00:28:08;;;;;;;14.70;13.20;;;;;;;;;;5036741;28;20037;-80
2023/06/23 00:30:34;;;;;;;12.10;11.02;;;;;;;;;;5038274;28;20048;-80
2023/06/23 00:33:00;;;;;;;12.77;11.57;;;;;;;;;;5037617;28;20059;-80
2023/06/23 00:35:26;;;;;;;12.18;10.98;;;;;;;;;;5037664;28;20080;-80
2023/06/23 00:37:53;;;;;;;12.13;11.07;;;;;;;;;;5036555;28;20049;-80
2023/06/23 00:40:22;;;;;;;14.68;12.60;;;;;;;;;;5019984;28;20057;-80
2023/06/23 00:42:52;;;;;;;12.20;11.10;;;;;;;;;;5036464;28;20053;-80
2023/06/23 00:45:19;;;;;;;15.82;11.68;;;;;;;;;;5019952;28;20049;-81
2023/06/23 00:47:45;;;;;;;13.27;11.88;;;;;;;;;;5036679;28;20374;-80
2023/06/23 00:50:16;;;;;;;12.07;10.93;;;;;;;;;;5036268;28;20041;-80
2023/06/23 00:52:52;;;;;;;13.05;11.43;;;;;;;;;;5037043;28;20123;-80
2023/06/23 00:55:21;;;;;;;12.38;11.27;;;;;;;;;;5037093;28;20057;-80
2023/06/23 00:57:48;;;;;;;12.88;11.52;;;;;;;;;;5036213;28;20501;-80
2023/06/23 01:00:19;;;;;;;13.77;12.27;;;;;;;;;;5036140;28;20051;-81
2023/06/23 01:02:48;;;;;;;11.63;10.55;;;;;;;;;;5037193;28;20463;-81
2023/06/23 01:05:15;;;;;;;11.98;10.85;;;;;;;;;;5036064;28;20056;-80
2023/06/23 01:07:46;;;;;;;14.40;12.70;;;;;;;;;;5035790;28;20091;-81
2023/06/23 01:10:32;;;;;;;13.75;12.05;;;;;;;;;;5036907;28;20061;-80
2023/06/23 01:12:58;;;;;;;12.50;11.27;;;;;;;;;;5035945;28;20493;-80
2023/06/23 01:15:30;;;;;;;13.05;11.80;;;;;;;;;;5037415;28;20051;-80
2023/06/23 01:18:13;;;;;;;16.00;13.88;;;;;;;;;;5035818;28;20042;-80
2023/06/23 01:20:40;;;;;;;13.80;12.30;;;;;;;;;;5035423;28;20045;-79
2023/06/23 01:23:16;;;;;;;16.52;13.45;;;;;;;;;;5035561;28;20049;-79
2023/06/23 01:26:00;;;;;;;14.77;13.25;;;;;;;;;;5036018;28;20073;-79
2023/06/23 01:28:45;;;;;;;14.93;13.52;;;;;;;;;;5019164;28;20124;-79
2023/06/23 01:31:13;;;;;;;14.95;13.43;;;;;;;;;;5035897;28;20456;-79
2023/06/23 01:33:43;;;;;;;12.93;11.70;;;;;;;;;;5035513;28;20477;-78
2023/06/23 01:36:14;;;;;;;13.63;11.82;;;;;;;;;;5035826;28;20045;-78
2023/06/23 01:38:41;;;;;;;12.40;11.20;;;;;;;;;;5035713;28;20173;-78
2023/06/23 01:41:10;;;;;;;12.85;11.75;;;;;;;;;;5035531;28;20095;-78
2023/06/23 01:43:37;;;;;;;11.45;10.32;;;;;;;;;;5035630;28;20081;-78
2023/06/23 01:46:09;;;;;;;11.95;10.40;;;;;;;;;;5035583;28;20068;-78
2023/06/23 01:48:36;;;;;;;12.88;11.05;;;;;;;;;;5036187;28;20055;-78
2023/06/23 01:51:04;;;;;;;12.50;11.18;;;;;;;;;;5035416;28;20140;-78
2023/06/23 01:53:31;;;;;;;13.63;11.02;;;;;;;;;;5018628;28;20084;-78
2023/06/23 01:55:58;;;;;;;14.20;11.38;;;;;;;;;;5035107;28;20100;-78
2023/06/23 01:58:25;;;;;;;11.75;10.73;;;;;;;;;;5035836;28;20041;-78
2023/06/23 02:00:51;;;;;;;11.88;10.73;;;;;;;;;;5034914;28;20103;-78
2023/06/23 02:03:18;;;;;;;12.48;11.23;;;;;;;;;;5035779;28;20046;-78
2023/06/23 02:05:46;;;;;;;11.80;10.60;;;;;;;;;;5035744;28;20048;-78
2023/06/23 02:08:13;;;;;;;11.05;10.00;;;;;;;;;;5034580;28;20071;-78
2023/06/23 02:10:40;;;;;;;11.05;10.07;;;;;;;;;;5034891;28;20042;-78
2023/06/23 02:13:07;;;;;;;11.93;10.77;;;;;;;;;;5035787;28;20085;-79
2023/06/23 02:15:33;;;;;;;14.48;13.02;;;;;;;;;;5035036;28;20053;-79
2023/06/23 02:18:00;;;;;;;12.95;11.60;;;;;;;;;;5034462;28;20131;-78
2023/06/23 02:20:28;;;;;;;12.68;11.38;;;;;;;;;;5035321;28;20048;-79
2023/06/23 02:22:54;;;;;;;12.90;11.50;;;;;;;;;;5034349;28;20132;-78
2023/06/23 02:25:21;;;;;;;15.15;13.38;;;;;;;;;;5034392;28;20053;-78
2023/06/23 02:27:48;;;;;;;14.77;13.27;;;;;;;;;;5034484;28;20041;-78
2023/06/23 02:30:17;;;;;;;17.08;15.20;;;;;;;;;;5034740;28;20072;-79
2023/06/23 02:32:44;;;;;;;13.80;12.68;;;;;;;;;;5034422;28;20103;-79
2023/06/23 02:35:13;;;;;;;14.15;12.98;;;;;;;;;;5035188;28;20042;-79
2023/06/23 02:37:40;;;;;;;15.25;13.75;;;;;;;;;;5018063;28;20085;-79
2023/06/23 02:40:16;;;;;;;16.55;14.65;;;;;;;;;;5034284;28;20132;-79
2023/06/23 02:42:44;;;;;;;15.63;14.25;;;;;;;;;;5034248;28;20120;-79
2023/06/23 02:45:14;;;;;;;15.88;14.48;;;;;;;;;;5035015;28;20050;-79
2023/06/23 02:47:42;;;;;;;15.70;14.25;;;;;;;;;;5034151;28;20064;-79
2023/06/23 02:50:11;;;;;;;16.05;14.45;;;;;;;;;;5035051;28;20124;-79
2023/06/23 02:52:42;;;;;;;15.75;14.23;;;;;;;;;;5034057;28;20088;-79
2023/06/23 02:55:09;;;;;;;15.30;13.80;;;;;;;;;;5034835;28;20042;-79
2023/06/23 02:57:36;;;;;;;15.63;14.00;;;;;;;;;;5034238;28;20053;-78
2023/06/23 03:00:13;;;;;;;16.67;15.07;;;;;;;;;;5017700;28;20049;-79
2023/06/23 03:02:42;;;;;;;14.15;12.75;;;;;;;;;;5034349;28;20485;-79
2023/06/23 03:05:08;;;;;;;13.88;12.57;;;;;;;;;;5035412;28;20053;-78
2023/06/23 03:07:38;;;;;;;19.50;14.20;;;;;;;;;;5033463;28;20054;-79
2023/06/23 03:10:05;;;;;;;12.45;11.48;;;;;;;;;;5033668;28;20048;-79
2023/06/23 03:12:31;;;;;;;13.90;12.68;;;;;;;;;;5017201;28;20045;-79
2023/06/23 03:14:57;;;;;;;13.65;12.25;;;;;;;;;;5033904;28;20045;-79
2023/06/23 03:17:26;;;;;;;17.65;15.85;;;;;;;;;;5033581;28;20056;-79
2023/06/23 03:19:57;;;;;;;14.05;12.98;;;;;;;;;;5035025;28;20037;-79
2023/06/23 03:22:29;;;;;;;14.82;12.75;;;;;;;;;;5033137;28;20409;-80
2023/06/23 03:24:59;;;;;;;13.23;12.02;;;;;;;;;;5033474;28;20115;-79
2023/06/23 03:27:28;;;;;;;13.93;12.35;;;;;;;;;;5033740;28;20128;-79
2023/06/23 03:29:56;;;;;;;13.40;12.15;;;;;;;;;;5033358;28;20053;-79
2023/06/23 03:32:27;;;;;;;15.50;14.02;;;;;;;;;;5033336;28;20111;-79
2023/06/23 03:34:58;;;;;;;14.13;12.23;;;;;;;;;;5033284;28;20046;-79
2023/06/23 03:37:27;;;;;;;13.65;12.45;;;;;;;;;;5034133;28;20053;-79
2023/06/23 03:39:55;;;;;;;14.10;12.65;;;;;;;;;;5016758;28;20099;-79
2023/06/23 03:42:21;;;;;;;16.35;14.18;;;;;;;;;;5032860;28;20038;-79
2023/06/23 03:44:48;;;;;;;15.00;13.50;;;;;;;;;;5033202;28;20118;-79
2023/06/23 03:47:16;;;;;;;16.95;14.93;;;;;;;;;;5033818;28;20443;-79
2023/06/23 03:49:43;;;;;;;17.58;15.90;;;;;;;;;;5032953;28;20123;-79
2023/06/23 03:52:11;;;;;;;13.90;12.57;;;;;;;;;;5032715;28;20056;-79
2023/06/23 03:54:40;;;;;;;19.23;16.48;;;;;;;;;;5033906;28;20052;-79
2023/06/23 03:57:08;;;;;;;16.20;14.60;;;;;;;;;;5033961;28;20061;-79
2023/06/23 03:59:34;;;;;;;20.17;17.63;;;;;;;;;;5032717;28;20481;-79
2023/06/23 04:02:01;;;;;;;22.92;18.08;;;;;;;;;;5032631;28;20045;-79
2023/06/23 04:04:28;;;;;;;15.50;13.90;;;;;;;;;;5033128;28;20385;-79
2023/06/23 04:06:55;;;;;;;18.13;16.35;;;;;;;;;;5016418;28;20103;-78
2023/06/23 04:09:24;;;;;;;15.88;14.27;;;;;;;;;;5032744;28;20041;-79
2023/06/23 04:11:52;;;;;;;15.27;13.60;;;;;;;;;;5032391;28;20516;-79
2023/06/23 04:14:19;;;;;;;16.55;14.85;;;;;;;;;;5032596;28;20052;-79
2023/06/23 04:16:46;;;;;;;15.52;14.02;;;;;;;;;;5032743;28;20481;-79
2023/06/23 04:19:12;;;;;;;15.77;13.85;;;;;;;;;;5033445;28;20362;-79
2023/06/23 04:21:39;;;;;;;16.15;13.60;;;;;;;;;;5031891;28;20061;-78
2023/06/23 04:24:07;;;;;;;14.57;13.27;;;;;;;;;;5033507;28;20045;-79
2023/06/23 04:26:35;;;;;;;15.68;14.38;;;;;;;;;;5016381;28;20042;-79
2023/06/23 04:29:03;;;;;;;15.32;13.93;;;;;;;;;;5032539;28;20053;-78
2023/06/23 04:31:31;;;;;;;13.90;12.60;;;;;;;;;;5032619;28;20497;-79
2023/06/23 04:33:57;;;;;;;15.20;13.85;;;;;;;;;;5033325;28;20045;-78
2023/06/23 04:36:25;;;;;;;16.60;14.98;;;;;;;;;;5033466;28;20056;-79
2023/06/23 04:38:53;;;;;;;14.10;12.80;;;;;;;;;;5032432;28;20080;-78
2023/06/23 04:41:20;;;;;;;16.77;14.90;;;;;;;;;;5033153;28;20412;-79
2023/06/23 04:43:47;;;;;;;16.67;14.98;;;;;;;;;;5032177;28;20495;-79
2023/06/23 04:46:20;;;;;;;14.77;13.32;;;;;;;;;;5032417;28;20444;-78
2023/06/23 04:48:48;;;;;;;14.07;12.68;;;;;;;;;;5033263;28;20106;-78
2023/06/23 04:51:16;;;;;;;13.68;12.57;;;;;;;;;;5032824;28;20064;-78
2023/06/23 04:53:48;;;;;;;14.50;13.10;;;;;;;;;;5015862;28;20049;-78
2023/06/23 04:56:16;;;;;;;14.73;12.95;;;;;;;;;;5033049;28;20038;-79
2023/06/23 04:58:44;;;;;;;13.77;12.40;;;;;;;;;;5032236;28;20136;-78
2023/06/23 05:01:11;;;;;;;14.35;13.02;;;;;;;;;;5032164;28;20070;-78
2023/06/23 05:03:38;;;;;;;13.88;12.52;;;;;;;;;;5032212;28;20444;-78
2023/06/23 05:06:05;;;;;;;13.38;11.90;;;;;;;;;;5033498;28;20528;-78
2023/06/23 05:08:31;;;;;;;13.30;12.00;;;;;;;;;;5032166;28;20057;-79
2023/06/23 05:11:04;;;;;;;13.55;12.23;;;;;;;;;;5033295;28;20052;-78
2023/06/23 05:13:30;;;;;;;13.20;12.05;;;;;;;;;;5036240;28;20049;-78
2023/06/23 05:15:57;;;;;;;13.60;12.32;;;;;;;;;;5035937;28;20049;-78
2023/06/23 05:18:24;;;;;;;13.23;11.85;;;;;;;;;;5036158;28;20046;-79
2023/06/23 05:20:51;;;;;;;14.55;12.43;;;;;;;;;;5035237;28;20497;-78
2023/06/23 05:23:18;;;;;;;15.30;13.98;;;;;;;;;;5035348;28;20065;-79
2023/06/23 05:25:46;;;;;;;13.98;12.77;;;;;;;;;;5035412;28;20065;-79
2023/06/23 05:28:13;;;;;;;14.45;13.02;;;;;;;;;;5035680;28;20128;-79
2023/06/23 05:30:40;;;;;;;14.57;12.65;;;;;;;;;;5036458;28;20381;-79
2023/06/23 05:33:08;;;;;;;12.90;11.70;;;;;;;;;;5036374;28;20477;-79
2023/06/23 05:35:34;;;;;;;12.65;10.50;;;;;;;;;;5035308;28;20503;-79
2023/06/23 05:38:02;;;;;;;12.45;11.45;;;;;;;;;;5036290;28;20378;-79
2023/06/23 05:40:28;;;;;;;17.67;14.93;;;;;;;;;;5018703;28;20083;-79
2023/06/23 05:42:54;;;;;;;11.50;10.40;;;;;;;;;;5035103;28;20068;-79
2023/06/23 05:45:20;;;;;;;15.15;12.73;;;;;;;;;;5035315;28;20048;-79
2023/06/23 05:48:05;;;;;;;12.48;11.43;;;;;;;;;;5036127;28;20048;-79
2023/06/23 05:50:32;;;;;;;;;;;;;;;;;;5036423;28;20115;-79
2023/06/23 05:53:03;;;;;;;12.82;11.57;;;;;;;;;;5034891;28;19967;-79
2023/06/23 05:55:31;;;;;;;11.68;10.60;;;;;;;;;;5035423;28;20141;-79
2023/06/23 05:58:00;;;;;;;11.82;10.82;;;;;;;;;;5035912;28;20050;-79
2023/06/23 06:00:32;;;;;;;12.65;11.50;;;;;;;;;;5035881;28;20052;-79
2023/06/23 06:03:02;;;;;;;13.88;12.52;;;;;;;;;;5034771;28;20064;-79
2023/06/23 06:05:28;;;;;;;14.70;13.32;;;;;;;;;;5018113;28;20054;-79
2023/06/23 06:07:56;;;;;;;13.77;12.32;;;;;;;;;;5034913;28;20508;-79
2023/06/23 06:10:26;;;;;;;12.40;11.20;;;;;;;;;;5035647;28;20041;-79
2023/06/23 06:12:53;;;;;;;11.77;10.90;;;;;;;;;;5035077;28;20073;-79
2023/06/23 06:15:20;;;;;;;15.70;12.93;;;;;;;;;;5018778;28;20466;-79
2023/06/23 06:17:46;;;;;;;13.38;12.05;;;;;;;;;;5036532;28;20377;-79
2023/06/23 06:20:14;;;;;;;14.55;12.23;;;;;;;;;;5035139;28;20489;-79
2023/06/23 06:22:42;;;;;;;13.45;12.05;;;;;;;;;;5033892;28;20412;-79
2023/06/23 06:25:10;;;;;;;11.98;10.98;;;;;;;;;;5034834;28;20057;-79
2023/06/23 06:27:37;;;;;;;12.73;11.43;;;;;;;;;;5034569;28;20128;-79
2023/06/23 06:30:04;;;;;;;11.32;10.45;;;;;;;;;;5034531;28;20087;-79
2023/06/23 06:32:33;;;;;;;13.25;12.05;;;;;;;;;;5034413;28;20057;-79
2023/06/23 06:35:04;;;;;;;13.77;11.65;;;;;;;;;;5017873;28;20049;-78
2023/06/23 06:37:32;;;;;;;14.82;13.25;;;;;;;;;;5034382;28;20559;-78
2023/06/23 06:39:59;;;;;;;12.82;11.63;;;;;;;;;;5035071;28;20041;-78
2023/06/23 06:42:25;;;;;;;12.93;11.80;;;;;;;;;;5034238;28;20080;-79
2023/06/23 06:44:51;;;;;;;15.57;12.88;;;;;;;;;;5034440;28;20049;-79
2023/06/23 06:47:17;;;;;;;14.75;13.43;;;;;;;;;;5034971;28;20045;-78
2023/06/23 06:49:44;;;;;;;14.20;12.80;;;;;;;;;;5017541;28;20118;-78
2023/06/23 06:52:10;;;;;;;14.00;12.48;;;;;;;;;;5034068;28;20457;-79
2023/06/23 06:54:36;;;;;;;12.75;11.65;;;;;;;;;;5033994;28;20088;-79
2023/06/23 06:57:03;;;;;;;11.05;10.07;;;;;;;;;;5034015;28;20045;-78
2023/06/23 06:59:29;;;;;;;11.70;10.45;;;;;;;;;;5033899;28;20516;-79
2023/06/23 07:01:55;;;;;;;11.35;10.23;;;;;;;;;;5035025;28;20474;-79
2023/06/23 07:04:22;;;;;;;10.27;9.25;;;;;;;;;;5017299;28;20049;-79
2023/06/23 07:06:54;;;;;;;11.43;8.48;;;;;;;;;;5033724;28;20440;-79
2023/06/23 07:09:20;;;;;;;10.00;9.15;;;;;;;;;;5033390;28;20042;-79
2023/06/23 07:11:50;;;;;;;9.43;8.45;;;;;;;;;;5017286;28;20048;-79
2023/06/23 07:14:16;;;;;;;9.80;8.63;;;;;;;;;;5033665;28;20045;-79
2023/06/23 07:16:42;;;;;;;10.25;8.27;;;;;;;;;;5033646;28;20531;-78
2023/06/23 07:19:08;;;;;;;8.55;7.82;;;;;;;;;;5033339;28;20045;-78
2023/06/23 07:21:34;;;;;;;8.23;7.60;;;;;;;;;;5016573;28;20057;-78
2023/06/23 07:24:01;;;;;;;8.57;7.07;;;;;;;;;;5001656;28;20057;-78
2023/06/23 07:26:27;;;;;;;8.30;7.03;;;;;;;;;;5033563;28;20095;-78
2023/06/23 07:28:53;;;;;;;9.88;6.97;;;;;;;;;;5033643;28;20059;-78
2023/06/23 07:31:19;;;;;;;7.22;6.50;;;;;;;;;;5034959;28;20064;-78
2023/06/23 07:33:45;;;;;;;7.75;6.97;;;;;;;;;;5016856;28;20045;-78
2023/06/23 07:36:11;;;;;;;7.68;6.90;;;;;;;;;;5032737;28;20049;-78
2023/06/23 07:38:37;;;;;;;7.22;6.00;;;;;;;;;;5017169;28;20053;-79
2023/06/23 07:41:04;;;;;;;6.90;6.30;;;;;;;;;;5032974;28;20107;-78
2023/06/23 07:43:30;;;;;;;6.63;6.13;;;;;;;;;;5033012;28;20061;-78
2023/06/23 07:45:56;;;;;;;6.43;5.82;;;;;;;;;;5033090;28;20049;-78
2023/06/23 07:48:22;;;;;;;5.80;5.32;;;;;;;;;;5032803;28;20080;-78
2023/06/23 07:50:48;;;;;;;5.95;5.43;;;;;;;;;;5032909;28;20473;-79
2023/06/23 07:53:15;;;;;;;5.55;5.10;;;;;;;;;;5016742;28;20122;-78
2023/06/23 07:55:41;;;;;;;6.50;4.47;;;;;;;;;;5033929;28;20140;-79
2023/06/23 07:58:07;;;;;;;6.90;5.05;;;;;;;;;;5033215;28;20041;-79
2023/06/23 08:00:33;;;;;;;5.93;5.22;;;;;;;;;;5016536;28;20037;-79
2023/06/23 08:02:59;;;;;;;4.50;4.10;;;;;;;;;;5032583;28;20081;-79
2023/06/23 08:05:25;;;;;;;4.22;3.83;;;;;;;;;;5033586;28;20524;-79
2023/06/23 08:07:51;;;;;;;4.10;3.75;;;;;;;;;;5033623;28;20053;-79
2023/06/23 08:10:17;;;;;;;5.03;4.05;;;;;;;;;;5032775;28;20049;-79
2023/06/23 08:12:43;;;;;;;5.10;3.88;;;;;;;;;;5033015;28;20103;-79
2023/06/23 08:15:09;;;;;;;3.58;3.28;;;;;;;;;;5017199;28;20050;-79
2023/06/23 08:17:35;;;;;;;3.47;3.20;;;;;;;;;;5032700;28;20049;-79
2023/06/23 08:20:01;;;;;;;3.80;3.45;;;;;;;;;;5033319;28;20366;-79
2023/06/23 08:22:28;;;;;;;3.78;3.45;;;;;;;;;;5032984;28;20061;-79
2023/06/23 08:24:54;;;;;;;3.65;3.35;;;;;;;;;;5033551;28;20057;-79
2023/06/23 08:27:20;;;;;;;4.65;3.03;;;;;;;;;;5032320;28;20123;-79
2023/06/23 08:29:46;;;;;;;3.83;3.60;;;;;;;;;;5032547;28;20045;-80
2023/06/23 08:32:13;;;;;;;4.10;2.85;;;;;;;;;;5016190;28;20048;-80
2023/06/23 08:34:39;;;;;;;5.03;4.15;;;;;;;;;;5032581;28;20473;-80
2023/06/23 08:37:05;;;;;;;4.40;3.00;;;;;;;;;;5032788;28;20064;-80
2023/06/23 08:39:31;;;;;;;4.00;3.38;;;;;;;;;;5032506;28;20054;-80
2023/06/23 08:41:58;;;;;;;3.63;3.40;;;;;;;;;;5033080;28;20056;-80
2023/06/23 08:44:26;;;;;;;3.70;3.40;;;;;;;;;;5032435;28;20045;-80
2023/06/23 08:47:01;;;;;;;5.15;3.47;;;;;;;;;;5018680;28;20049;-80
2023/06/23 08:49:30;;;;;;;4.65;4.10;;;;;;;;;;5019947;28;20140;-80
2023/06/23 08:51:57;;;;;;;3.53;2.83;;;;;;;;;;5019815;28;20056;-81
2023/06/23 08:54:23;;;;;;;3.35;3.15;;;;;;;;;;5035989;28;20451;-81
2023/06/23 08:56:49;;;;;;;4.13;3.72;;;;;;;;;;5036253;28;20046;-80
2023/06/23 08:59:16;;;;;;;5.25;3.90;;;;;;;;;;5019714;28;20057;-80
2023/06/23 09:01:42;;;;;;;3.88;3.58;;;;;;;;;;5035987;28;20037;-80
2023/06/23 09:04:08;;;;;;;4.57;4.18;;;;;;;;;;5036392;28;20367;-81
2023/06/23 09:06:34;;;;;;;4.97;4.57;;;;;;;;;;5036105;28;20053;-80
2023/06/23 09:09:00;;;;;;;4.20;3.90;;;;;;;;;;5035772;28;20046;-81
2023/06/23 09:11:27;;;;;;;4.55;4.20;;;;;;;;;;5036004;28;20041;-81
2023/06/23 09:13:55;;;;;;;4.40;4.10;;;;;;;;;;5035970;28;20388;-81
2023/06/23 09:16:21;;;;;;;4.80;3.03;;;;;;;;;;5035658;28;20493;-81
2023/06/23 09:18:48;;;;;;;3.83;2.72;;;;;;;;;;5020330;28;20137;-81
2023/06/23 09:21:14;;;;;;;3.33;2.60;;;;;;;;;;5035621;28;20537;-81
2023/06/23 09:23:57;;;;;;;3.30;3.10;;;;;;;;;;5035623;28;20152;-80
2023/06/23 09:26:23;;;;;;;1.98;1.88;;;;;;;;;;5020090;28;20465;-80
2023/06/23 09:28:49;;;;;;;2.10;1.90;;;;;;;;;;5019458;28;20053;-81
2023/06/23 09:31:16;;;;;;;2.10;1.90;;;;;;;;;;5020129;28;20342;-81
2023/06/23 09:33:46;;;;;;;1.80;1.60;;;;;;;;;;5019131;28;20493;-81
2023/06/23 09:36:12;;;;;;;1.60;1.50;;;;;;;;;;5035523;28;20049;-80
2023/06/23 09:38:39;;;;;;;2.10;1.80;;;;;;;;;;5037021;28;20107;-81
2023/06/23 09:41:15;;;;;;;2.70;1.67;;;;;;;;;;5036350;28;20087;-80
2023/06/23 09:43:42;;;;;;;3.33;1.77;;;;;;;;;;5035320;28;20049;-80
2023/06/23 09:46:12;;;;;;;2.05;1.95;;;;;;;;;;5019662;28;20089;-80
2023/06/23 09:48:38;;;;;;;1.25;1.15;;;;;;;;;;5034974;28;20042;-81
2023/06/23 09:51:05;;;;;;;2.22;1.60;;;;;;;;;;5035430;28;20041;-80
2023/06/23 09:53:33;;;;;;;2.05;1.70;;;;;;;;;;5034931;28;20064;-80
2023/06/23 09:55:59;;;;;;;1.00;1.00;;;;;;;;;;5035084;28;20489;-81
2023/06/23 09:58:31;;;;;;;2.13;1.20;;;;;;;;;;5034858;28;20053;-81
2023/06/23 10:01:02;;;;;;;1.73;1.63;;;;;;;;;;5018593;28;20049;-80
2023/06/23 10:03:29;;;;;;;1.67;1.58;;;;;;;;;;5018570;28;20154;-80
2023/06/23 10:05:59;;;;;;;1.50;1.40;;;;;;;;;;5019397;28;20056;-80
2023/06/23 10:08:28;;;;;;;1.55;1.45;;;;;;;;;;5034977;28;20045;-81
2023/06/23 10:10:54;;;;;;;1.73;1.63;;;;;;;;;;5035152;28;20152;-81
2023/06/23 10:13:21;;;;;;;1.65;1.50;;;;;;;;;;5034859;28;20053;-80
2023/06/23 10:15:47;;;;;;;1.65;1.55;;;;;;;;;;5034802;28;20080;-81
2023/06/23 10:18:14;;;;;;;2.50;1.95;;;;;;;;;;5034792;28;20433;-81
2023/06/23 10:20:40;;;;;;;1.88;1.77;;;;;;;;;;5018451;28;20111;-81
2023/06/23 10:23:06;;;;;;;1.75;1.65;;;;;;;;;;5018147;28;20100;-81
2023/06/23 10:25:38;;;;;;;1.55;1.45;;;;;;;;;;5034651;28;20465;-81
2023/06/23 10:28:08;;;;;;;1.60;1.50;;;;;;;;;;5034646;28;20535;-81
2023/06/23 10:30:34;;;;;;;2.53;1.80;;;;;;;;;;5034770;28;20136;-81
2023/06/23 10:33:02;;;;;;;2.28;1.83;;;;;;;;;;5018055;28;20053;-80
2023/06/23 10:35:30;;;;;;;3.22;1.67;;;;;;;;;;5034789;28;20474;-81
2023/06/23 10:38:03;;;;;;;2.65;2.08;;;;;;;;;;5035212;28;20057;-81
2023/06/23 10:40:31;;;;;;;2.08;1.63;;;;;;;;;;5035387;28;20119;-81
2023/06/23 10:43:00;;;;;;;2.33;2.13;;;;;;;;;;5033937;28;20042;-81
2023/06/23 10:45:26;;;;;;;2.10;1.88;;;;;;;;;;5033950;28;20057;-81
2023/06/23 10:47:52;;;;;;;1.48;1.38;;;;;;;;;;5034235;28;20057;-80
2023/06/23 10:50:19;;;;;;;1.67;1.30;;;;;;;;;;5033792;28;20056;-81
2023/06/23 10:52:45;;;;;;;1.05;1.05;;;;;;;;;;5017347;28;20121;-80
2023/06/23 10:55:43;;;;;;;1.38;1.02;;;;;;;;;;5017709;28;20393;-80
2023/06/23 10:58:10;;;;;;;1.63;1.00;;;;;;;;;;5012017;28;20054;-81
2023/06/23 11:00:36;;;;;;;1.20;0.90;;;;;;;;;;5017790;28;20366;-81
2023/06/23 11:03:02;;;;;;;1.70;0.80;;;;;;;;;;5033884;28;20064;-81
2023/06/23 11:05:28;;;;;;;1.95;1.10;;;;;;;;;;5018175;28;20136;-81
2023/06/23 11:08:01;;;;;;;1.30;1.20;;;;;;;;;;5033673;28;20053;-81
2023/06/23 11:10:46;;;;;;;3.35;1.30;;;;;;;;;;5033441;28;20045;-80
2023/06/23 11:13:13;;;;;;;1.20;1.10;;;;;;;;;;5033718;28;20544;-81
2023/06/23 11:15:39;;;;;;;2.38;1.60;;;;;;;;;;5033697;28;20046;-81
2023/06/23 11:18:05;;;;;;;2.90;1.42;;;;;;;;;;5035393;28;20175;-81
2023/06/23 11:20:32;;;;;;;1.40;1.30;;;;;;;;;;5017106;28;20122;-81
2023/06/23 11:23:01;;;;;;;1.33;1.00;;;;;;;;;;5016901;28;20409;-81
2023/06/23 11:25:31;;;;;;;1.23;1.17;;;;;;;;;;5033512;28;20049;-80
2023/06/23 11:28:16;;;;;;;1.63;1.52;;;;;;;;;;5033513;28;20049;-81
2023/06/23 11:30:56;;;;;;;2.25;1.80;;;;;;;;;;5032798;28;20131;-80
2023/06/23 11:33:26;;;;;;;2.30;1.30;;;;;;;;;;5033252;28;20041;-81
2023/06/23 11:35:53;;;;;;;1.50;1.40;;;;;;;;;;5033287;28;20045;-80
2023/06/23 11:38:19;;;;;;;1.85;1.38;;;;;;;;;;5016859;28;20132;-80
2023/06/23 11:40:46;;;;;;;1.38;0.90;;;;;;;;;;5033161;28;20477;-80
2023/06/23 11:43:14;;;;;;;1.13;0.90;;;;;;;;;;5033185;28;20045;-80
2023/06/23 11:45:51;;;;;;;1.25;1.17;;;;;;;;;;5033218;28;20049;-80
2023/06/23 11:48:17;;;;;;;0.98;0.95;;;;;;;;;;5033365;28;20049;-80
2023/06/23 11:50:43;;;;;;;1.20;0.80;;;;;;;;;;5033011;28;20041;-80
2023/06/23 11:53:10;;;;;;;3.00;1.10;;;;;;;;;;5016352;28;20057;-80
2023/06/23 11:55:36;;;;;;;1.33;0.68;;;;;;;;;;5033801;28;20100;-80
2023/06/23 11:58:03;;;;;;;1.08;0.93;;;;;;;;;;5032924;28;20046;-80
2023/06/23 12:00:30;;;;;;;0.98;0.82;;;;;;;;;;5016443;28;20053;-79
2023/06/23 12:02:58;;;;;;;1.92;1.00;;;;;;;;;;5032568;28;20045;-80
2023/06/23 12:05:24;;;;;;;1.10;1.00;;;;;;;;;;5032858;28;20057;-80
2023/06/23 12:07:51;;;;;;;0.93;0.80;;;;;;;;;;5032495;28;20053;-80
2023/06/23 12:10:17;;;;;;;1.95;0.70;;;;;;;;;;5016628;28;20468;-80
2023/06/23 12:12:45;;;;;;;2.08;0.70;;;;;;;;;;5032771;28;20512;-79
2023/06/23 12:15:11;;;;;;;1.73;0.85;;;;;;;;;;5016568;28;20045;-79
2023/06/23 12:17:44;;;;;;;1.55;0.70;;;;;;;;;;5034244;28;20103;-79
2023/06/23 12:20:10;;;;;;;2.92;0.90;;;;;;;;;;5015903;28;20188;-79
2023/06/23 12:22:38;;;;;;;3.33;0.70;;;;;;;;;;5031990;28;20528;-79
2023/06/23 12:25:04;;;;;;;1.05;0.50;;;;;;;;;;5033437;28;20382;-79
2023/06/23 12:27:31;;;;;;;1.17;1.08;;;;;;;;;;5033398;28;20094;-79
2023/06/23 12:30:14;;;;;;;3.60;0.90;;;;;;;;;;5032615;28;20045;-79
2023/06/23 12:32:40;;;;;;;0.80;0.70;;;;;;;;;;5033916;28;20432;-80
2023/06/23 12:35:07;;;;;;;2.08;0.93;;;;;;;;;;5033384;28;20063;-79
2023/06/23 12:37:43;;;;;;;1.23;1.13;;;;;;;;;;5032204;28;20052;-80
2023/06/23 12:40:10;;;;;;;2.00;0.93;;;;;;;;;;5032862;28;20079;-79
2023/06/23 12:42:37;;;;;;;3.25;0.82;;;;;;;;;;5032240;28;20056;-79
2023/06/23 12:45:03;;;;;;;1.05;0.65;;;;;;;;;;5033678;28;20041;-80
2023/06/23 12:47:30;;;;;;;1.52;0.82;;;;;;;;;;5032460;28;20073;-79
2023/06/23 12:50:06;;;;;;;0.98;0.60;;;;;;;;;;5032317;28;20473;-80
2023/06/23 12:52:32;;;;;;;1.33;0.60;;;;;;;;;;5032717;28;20049;-79
2023/06/23 12:54:58;;;;;;;0.80;0.57;;;;;;;;;;5033229;28;20127;-79
2023/06/23 12:57:24;;;;;;;2.58;0.60;;;;;;;;;;5033358;28;20469;-80
2023/06/23 12:59:50;;;;;;;1.33;0.65;;;;;;;;;;5016724;28;20094;-80
2023/06/23 13:02:18;;;;;;;0.85;0.60;;;;;;;;;;5033214;28;20477;-80
2023/06/23 13:04:44;;;;;;;2.15;0.82;;;;;;;;;;5016308;28;20053;-79
2023/06/23 13:07:10;;;;;;;2.63;0.80;;;;;;;;;;5033333;28;20080;-79
2023/06/23 13:09:37;;;;;;;0.75;0.70;;;;;;;;;;5032344;28;20045;-79
2023/06/23 13:12:03;;;;;;;2.10;0.90;;;;;;;;;;5015499;28;20046;-79
2023/06/23 13:14:29;;;;;;;1.08;0.70;;;;;;;;;;5032551;28;20041;-79
2023/06/23 13:16:55;;;;;;;1.55;0.82;;;;;;;;;;5032838;28;20049;-79
2023/06/23 13:19:21;;;;;;;0.70;0.65;;;;;;;;;;5015686;28;20060;-79
2023/06/23 13:21:49;;;;;;;3.08;1.10;;;;;;;;;;5032324;28;20053;-79
2023/06/23 13:24:15;;;;;;;1.80;1.10;;;;;;;;;;5031985;28;20054;-79
2023/06/23 13:26:44;;;;;;;1.25;1.02;;;;;;;;;;5032127;28;20060;-79
2023/06/23 13:29:10;;;;;;;1.45;0.77;;;;;;;;;;5032381;28;20047;-79
2023/06/23 13:31:36;;;;;;;1.67;0.95;;;;;;;;;;5032890;28;20037;-78
2023/06/23 13:34:02;;;;;;;1.10;0.80;;;;;;;;;;5035622;28;20128;-78
2023/06/23 13:36:28;;;;;;;1.25;0.70;;;;;;;;;;5035582;28;20049;-79
2023/06/23 13:38:55;;;;;;;1.30;0.63;;;;;;;;;;5035825;28;20053;-79
2023/06/23 13:41:21;;;;;;;0.90;0.60;;;;;;;;;;5035390;28;20046;-78
2023/06/23 13:43:47;;;;;;;1.48;0.70;;;;;;;;;;5035455;28;20106;-78
2023/06/23 13:46:14;;;;;;;1.58;0.68;;;;;;;;;;5036467;28;20045;-78
2023/06/23 13:48:40;;;;;;;1.15;0.73;;;;;;;;;;5036352;28;20061;-79
2023/06/23 13:51:06;;;;;;;1.95;0.63;;;;;;;;;;5002472;28;20060;-78
2023/06/23 13:53:33;;;;;;;1.67;0.50;;;;;;;;;;5018901;28;20504;-79
2023/06/23 13:55:59;;;;;;;1.95;0.88;;;;;;;;;;5035457;28;20099;-79
2023/06/23 13:58:25;;;;;;;0.80;0.65;;;;;;;;;;5034880;28;20045;-79
2023/06/23 14:00:52;;;;;;;0.70;0.50;;;;;;;;;;5034904;28;20049;-79
2023/06/23 14:03:19;;;;;;;2.88;0.80;;;;;;;;;;5035348;28;20386;-79
2023/06/23 14:05:45;;;;;;;1.23;0.93;;;;;;;;;;5034749;28;20050;-79
2023/06/23 14:08:11;;;;;;;1.17;0.80;;;;;;;;;;5034797;28;20095;-78
2023/06/23 14:10:37;;;;;;;1.77;0.85;;;;;;;;;;5035722;28;20354;-78
2023/06/23 14:13:03;;;;;;;1.23;0.80;;;;;;;;;;5018049;28;20081;-79
2023/06/23 14:15:29;;;;;;;1.45;0.73;;;;;;;;;;5034851;28;20049;-78
2023/06/23 14:17:55;;;;;;;0.75;0.70;;;;;;;;;;5002067;28;20227;-79
2023/06/23 14:20:21;;;;;;;1.60;0.60;;;;;;;;;;5018286;28;20182;-78
2023/06/23 14:22:47;;;;;;;0.90;0.70;;;;;;;;;;5034271;28;20115;-78
2023/06/23 14:25:13;;;;;;;1.85;0.60;;;;;;;;;;5034743;28;20057;-78
2023/06/23 14:27:39;;;;;;;1.20;0.60;;;;;;;;;;5036224;28;20045;-78
2023/06/23 14:30:05;;;;;;;0.93;0.70;;;;;;;;;;5035390;28;20076;-78
2023/06/23 14:32:31;;;;;;;2.13;0.50;;;;;;;;;;5034274;28;20409;-78
2023/06/23 14:34:58;;;;;;;3.20;0.73;;;;;;;;;;5034821;28;20049;-78